createdAt,value
2022-09-23T00:00:11.202Z,19.33
2022-09-23T00:02:42.176Z,21.00
2022-09-23T00:05:13.840Z,22.00
2022-09-23T00:07:44.664Z,21.35
2022-09-23T00:10:15.547Z,20.15
2022-09-23T00:12:46.765Z,22.88
2022-09-23T00:15:17.713Z,21.63
2022-09-23T00:17:48.858Z,22.48
2022-09-23T00:22:51.161Z,22.85
2022-09-23T00:25:21.900Z,22.20
2022-09-23T00:27:52.828Z,24.92
2022-09-23T00:30:23.632Z,25.05
2022-09-23T00:32:55.625Z,24.60
2022-09-23T00:35:26.586Z,23.30
2022-09-23T00:37:57.735Z,22.55
2022-09-23T00:40:28.902Z,20.52
2022-09-23T00:45:30.287Z,22.92
2022-09-23T00:48:06.332Z,25.05
2022-09-23T00:50:43.325Z,24.33
2022-09-23T00:53:17.219Z,28.15
2022-09-23T00:55:55.445Z,25.35
2022-09-23T00:58:33.917Z,22.42
2022-09-23T01:01:06.078Z,20.98
2022-09-23T01:03:36.938Z,23.80
2022-09-23T01:06:08.839Z,25.83
2022-09-23T01:08:40.408Z,23.17
2022-09-23T01:11:19.736Z,22.85
2022-09-23T01:13:53.669Z,22.55
2022-09-23T01:16:40.722Z,23.98
2022-09-23T01:19:43.438Z,26.20
2022-09-23T01:22:50.223Z,25.77
2022-09-23T01:25:46.615Z,26.77
2022-09-23T01:28:41.204Z,26.65
2022-09-23T01:31:47.877Z,27.67
2022-09-23T01:34:38.533Z,22.85
2022-09-23T01:37:44.136Z,25.88
2022-09-23T01:40:33.341Z,27.48
2022-09-23T01:43:13.117Z,26.42
2022-09-23T01:45:49.651Z,26.42
2022-09-23T01:48:55.538Z,26.40
2022-09-23T01:51:40.985Z,30.17
2022-09-23T01:54:38.772Z,29.70
2022-09-23T01:57:41.422Z,26.08
2022-09-23T02:00:18.193Z,23.45
2022-09-23T02:03:07.616Z,25.70
2022-09-23T02:05:47.794Z,22.45
2022-09-23T02:08:24.996Z,24.48
2022-09-23T02:11:10.653Z,24.02
2022-09-23T02:14:03.527Z,21.70
2022-09-23T02:16:50.786Z,16.70
2022-09-23T02:19:47.097Z,19.52
2022-09-23T02:22:31.374Z,17.15
2022-09-23T02:25:02.118Z,18.40
2022-09-23T02:27:35.527Z,19.73
2022-09-23T02:30:27.331Z,17.95
2022-09-23T02:33:22.844Z,14.82
2022-09-23T02:36:09.449Z,15.55
2022-09-23T02:38:46.643Z,15.10
2022-09-23T02:41:48.907Z,18.88
2022-09-23T02:44:22.337Z,17.67
2022-09-23T02:46:55.943Z,16.38
2022-09-23T02:49:30.258Z,17.00
2022-09-23T02:52:07.502Z,19.00
2022-09-23T02:54:39.631Z,17.20
2022-09-23T02:57:12.831Z,15.32
2022-09-23T02:59:44.550Z,17.50
2022-09-23T03:02:31.874Z,20.27
2022-09-23T03:05:32.810Z,19.63
2022-09-23T03:08:21.652Z,19.37
2022-09-23T03:11:11.603Z,22.30
2022-09-23T03:14:07.736Z,18.63
2022-09-23T03:16:50.395Z,19.70
2022-09-23T03:19:38.486Z,18.70
2022-09-23T03:22:15.445Z,17.67
2022-09-23T03:24:53.190Z,19.85
2022-09-23T03:27:31.799Z,20.17
2022-09-23T03:30:03.789Z,19.33
2022-09-23T03:32:37.485Z,20.40
2022-09-23T03:35:09.868Z,21.83
2022-09-23T03:38:06.516Z,23.95
2022-09-23T03:40:45.939Z,25.13
2022-09-23T03:43:17.088Z,26.23
2022-09-23T03:45:49.567Z,25.17
2022-09-23T03:48:20.656Z,25.40
2022-09-23T03:50:51.702Z,23.73
2022-09-23T03:53:24.012Z,21.58
2022-09-23T03:55:54.807Z,23.38
2022-09-23T03:58:25.683Z,22.75
2022-09-23T04:00:56.738Z,22.77
2022-09-23T04:08:30.161Z,21.48
2022-09-23T04:11:04.712Z,22.52
2022-09-23T04:13:35.760Z,22.27
2022-09-23T04:16:06.791Z,22.27
2022-09-23T04:18:38.528Z,23.17
2022-09-23T04:21:09.444Z,24.27
2022-09-23T04:23:40.229Z,25.05
2022-09-23T04:26:11.241Z,23.93
2022-09-23T04:28:41.923Z,23.73
2022-09-23T04:31:12.884Z,23.17
2022-09-23T04:33:43.912Z,22.48
2022-09-23T04:36:14.708Z,22.77
2022-09-23T04:38:49.974Z,23.05
2022-09-23T04:41:21.944Z,23.75
2022-09-23T04:43:52.769Z,24.13
2022-09-23T04:46:23.714Z,25.17
2022-09-23T04:48:54.944Z,24.77
2022-09-23T04:53:58.629Z,25.08
2022-09-23T04:59:04.414Z,26.25
2022-09-23T05:01:37.079Z,25.48
2022-09-23T05:04:10.544Z,25.88
2022-09-23T05:06:41.346Z,25.58
2022-09-23T05:09:13.236Z,24.92
2022-09-23T05:11:44.198Z,25.30
2022-09-23T05:14:15.100Z,24.52
2022-09-23T05:19:28.193Z,24.15
2022-09-23T05:21:59.074Z,24.83
2022-09-23T05:24:30.304Z,25.10
2022-09-23T05:29:31.747Z,29.63
2022-09-23T05:32:04.253Z,29.35
2022-09-23T05:34:35.163Z,32.08
2022-09-23T05:37:06.154Z,32.92
2022-09-23T05:39:36.911Z,32.90
2022-09-23T05:42:09.068Z,34.28
2022-09-23T05:44:39.893Z,41.25
2022-09-23T05:47:10.909Z,35.78
2022-09-23T05:49:58.537Z,33.95
2022-09-23T05:52:30.580Z,36.67
2022-09-23T05:55:01.382Z,43.75
2022-09-23T05:57:32.900Z,44.70
2022-09-23T06:00:03.727Z,42.45
2022-09-23T06:02:42.226Z,41.10
2022-09-23T06:05:14.593Z,44.38
2022-09-23T06:07:45.388Z,36.63
2022-09-23T06:10:16.182Z,36.85
2022-09-23T06:12:47.626Z,38.90
2022-09-23T06:17:49.706Z,38.05
2022-09-23T06:20:20.387Z,38.30
2022-09-23T06:22:54.263Z,38.55
2022-09-23T06:25:27.047Z,39.45
2022-09-23T06:27:58.892Z,41.22
2022-09-23T06:30:30.278Z,45.03
2022-09-23T06:33:01.339Z,43.38
2022-09-23T06:35:32.387Z,45.05
2022-09-23T06:38:07.454Z,43.20
2022-09-23T06:40:38.380Z,47.00
2022-09-23T06:43:09.200Z,40.92
2022-09-23T06:45:40.391Z,39.43
2022-09-23T06:50:43.160Z,42.40
2022-09-23T06:55:44.493Z,37.78
2022-09-23T06:58:15.206Z,38.30
2022-09-23T07:00:46.325Z,39.05
2022-09-23T07:03:17.096Z,41.58
2022-09-23T07:05:47.942Z,41.20
2022-09-23T07:08:19.154Z,38.45
2022-09-23T07:11:02.095Z,39.05
2022-09-23T07:13:35.059Z,40.35
2022-09-23T07:16:06.364Z,41.05
2022-09-23T07:21:12.211Z,37.60
2022-09-23T07:23:42.995Z,38.92
2022-09-23T07:26:13.929Z,39.13
2022-09-23T07:29:07.757Z,41.80
2022-09-23T07:31:40.115Z,37.20
2022-09-23T07:34:14.171Z,39.42
2022-09-23T07:36:45.088Z,37.65
2022-09-23T07:39:16.404Z,37.83
2022-09-23T07:44:18.949Z,40.35
2022-09-23T07:46:49.924Z,39.90
2022-09-23T07:49:20.790Z,38.97
2022-09-23T07:51:51.552Z,39.92
2022-09-23T07:54:23.228Z,40.05
2022-09-23T07:56:54.274Z,39.42
2022-09-23T07:59:25.263Z,39.58
2022-09-23T08:01:56.857Z,39.22
2022-09-23T08:04:32.301Z,39.08
2022-09-23T08:07:05.317Z,40.53
2022-09-23T08:09:44.022Z,40.25
2022-09-23T08:12:18.555Z,39.92
2022-09-23T08:14:49.464Z,40.85
2022-09-23T08:17:20.251Z,39.10
2022-09-23T08:19:51.043Z,40.28
2022-09-23T08:22:22.708Z,40.72
2022-09-23T08:24:55.361Z,39.20
2022-09-23T08:27:27.230Z,37.90
2022-09-23T08:29:58.043Z,40.72
2022-09-23T08:32:28.846Z,39.25
2022-09-23T08:34:59.761Z,39.70
2022-09-23T08:37:30.641Z,40.20
2022-09-23T08:40:01.405Z,39.25
2022-09-23T08:42:36.560Z,38.55
2022-09-23T08:45:15.667Z,38.35
2022-09-23T08:47:53.758Z,39.13
2022-09-23T08:50:28.930Z,40.63
2022-09-23T08:53:04.936Z,39.10
2022-09-23T08:55:49.485Z,41.35
2022-09-23T08:58:58.290Z,40.92
2022-09-23T09:01:49.626Z,40.30
2022-09-23T09:04:30.066Z,39.83
2022-09-23T09:07:35.655Z,39.75
2022-09-23T09:10:27.086Z,40.35
2022-09-23T09:13:10.018Z,40.03
2022-09-23T09:15:55.362Z,40.67
2022-09-23T09:18:27.545Z,37.92
2022-09-23T09:21:15.765Z,38.20
2022-09-23T09:24:02.910Z,38.38
2022-09-23T09:26:38.444Z,37.53
2022-09-23T09:29:34.841Z,38.58
2022-09-23T09:32:21.856Z,36.60
2022-09-23T09:35:03.421Z,36.78
2022-09-23T09:37:39.376Z,37.72
2022-09-23T09:40:19.692Z,35.63
2022-09-23T09:42:52.800Z,34.60
2022-09-23T09:45:58.202Z,35.15
2022-09-23T09:48:35.791Z,36.35
2022-09-23T09:51:27.512Z,34.85
2022-09-23T09:54:18.995Z,35.17
2022-09-23T09:56:49.608Z,34.25
2022-09-23T09:59:27.922Z,34.97
2022-09-23T10:02:28.561Z,33.55
2022-09-23T10:05:05.187Z,34.08
2022-09-23T10:07:37.570Z,33.30
2022-09-23T10:10:33.273Z,33.88
2022-09-23T10:13:18.889Z,33.88
2022-09-23T10:15:49.774Z,35.42
2022-09-23T10:18:29.754Z,34.38
2022-09-23T10:21:17.080Z,33.83
2022-09-23T10:23:51.668Z,32.88
2022-09-23T10:26:33.806Z,33.58
2022-09-23T10:29:07.962Z,33.72
2022-09-23T10:31:41.184Z,32.08
2022-09-23T10:34:30.550Z,32.35
2022-09-23T10:37:18.402Z,34.80
2022-09-23T10:40:07.428Z,34.35
2022-09-23T10:43:08.625Z,30.95
2022-09-23T10:46:02.498Z,29.07
2022-09-23T10:48:54.675Z,26.38
2022-09-23T10:51:34.371Z,23.92
2022-09-23T10:54:14.397Z,26.38
2022-09-23T10:57:43.252Z,20.38
2022-09-23T11:00:19.453Z,19.00
2022-09-23T11:03:27.071Z,18.73
2022-09-23T11:06:21.413Z,18.50
2022-09-23T11:09:27.338Z,18.10
2022-09-23T11:12:28.044Z,16.75
2022-09-23T11:15:22.100Z,17.77
2022-09-23T11:17:58.479Z,16.85
2022-09-23T11:20:50.956Z,16.95
2022-09-23T11:23:39.911Z,15.48
2022-09-23T11:26:13.708Z,15.75
2022-09-23T11:29:00.636Z,15.75
2022-09-23T11:31:34.706Z,15.40
2022-09-23T11:34:36.852Z,14.35
2022-09-23T11:37:16.085Z,17.05
2022-09-23T11:39:59.092Z,16.83
2022-09-23T11:42:34.298Z,16.10
2022-09-23T13:03:22.544Z,27.52
2022-09-23T13:06:21.929Z,22.33
2022-09-23T13:08:53.003Z,27.85
2022-09-23T13:11:31.518Z,21.50
2022-09-23T13:14:08.053Z,20.33
2022-09-23T13:16:51.921Z,21.75
2022-09-23T13:19:33.252Z,20.48
2022-09-23T13:22:14.624Z,25.15
2022-09-23T13:24:55.176Z,22.63
2022-09-23T13:27:35.907Z,21.37
2022-09-23T13:30:26.145Z,23.17
2022-09-23T13:33:22.146Z,21.10
2022-09-23T13:35:54.839Z,23.05
2022-09-23T13:38:28.713Z,23.27
2022-09-23T13:41:04.664Z,24.80
2022-09-23T13:43:45.253Z,22.48
2022-09-23T13:46:21.185Z,24.13
2022-09-23T13:48:57.436Z,25.80
2022-09-23T13:51:37.989Z,27.63
2022-09-23T13:54:08.606Z,26.97
2022-09-23T13:56:40.421Z,29.77
2022-09-23T13:59:25.912Z,28.80
2022-09-23T14:02:18.155Z,30.27
2022-09-23T14:04:49.875Z,26.17
2022-09-23T14:07:22.362Z,25.30
2022-09-23T14:09:58.838Z,24.73
2022-09-23T14:12:29.987Z,26.50
2022-09-23T14:15:01.394Z,23.40
2022-09-23T14:17:32.342Z,25.80
2022-09-23T14:20:03.125Z,26.27
2022-09-23T14:22:34.471Z,25.15
2022-09-23T14:25:06.192Z,25.23
2022-09-23T14:27:39.162Z,22.88
2022-09-23T14:30:16.662Z,20.58
2022-09-23T14:32:50.516Z,20.10
2022-09-23T14:35:40.912Z,18.85
2022-09-23T14:38:30.875Z,18.13
2022-09-23T14:41:20.070Z,17.27
2022-09-23T14:43:57.740Z,18.35
2022-09-23T14:46:31.936Z,18.85
2022-09-23T14:49:14.689Z,17.95
2022-09-23T14:51:57.983Z,19.80
2022-09-23T14:54:49.864Z,20.40
2022-09-23T14:57:34.877Z,18.77
2022-09-23T15:00:25.800Z,19.83
2022-09-23T15:03:05.856Z,19.50
2022-09-23T15:05:45.404Z,17.98
2022-09-23T15:08:24.079Z,17.23
2022-09-23T15:10:55.482Z,19.27
2022-09-23T15:16:04.669Z,20.42
2022-09-23T15:18:38.760Z,18.90
2022-09-23T15:21:16.566Z,18.83
2022-09-23T15:23:55.843Z,18.60
2022-09-23T15:26:45.725Z,17.23
2022-09-23T15:29:16.480Z,17.42
2022-09-23T15:31:47.445Z,16.98
2022-09-23T15:34:18.109Z,18.17
2022-09-23T15:36:49.519Z,16.10
2022-09-23T15:41:50.659Z,16.60
2022-09-23T15:44:32.117Z,15.67
2022-09-23T15:52:15.218Z,16.10
2022-09-23T15:54:46.546Z,16.02
2022-09-23T15:57:17.368Z,14.95
2022-09-23T15:59:48.031Z,13.77
2022-09-23T16:02:26.540Z,15.75
2022-09-23T16:04:57.367Z,15.02
2022-09-23T16:07:28.346Z,15.00
2022-09-23T16:10:01.404Z,17.33
2022-09-23T16:12:32.755Z,13.80
2022-09-23T16:15:03.519Z,15.73
2022-09-23T16:17:52.546Z,14.68
2022-09-23T16:20:23.254Z,14.25
2022-09-23T16:23:01.148Z,15.10
2022-09-23T16:25:36.596Z,16.95
2022-09-23T16:28:08.069Z,14.07
2022-09-23T16:30:38.739Z,14.38
2022-09-23T16:33:09.485Z,15.67
2022-09-23T16:35:41.116Z,13.67
2022-09-23T16:38:12.096Z,14.25
2022-09-23T16:40:47.015Z,18.13
2022-09-23T16:43:18.788Z,17.33
2022-09-23T16:45:49.731Z,16.67
2022-09-23T16:48:22.436Z,15.77
2022-09-23T16:50:55.704Z,17.25
2022-09-23T16:53:27.128Z,16.50
2022-09-23T16:56:01.107Z,16.50
2022-09-23T16:58:31.872Z,17.77
2022-09-23T17:01:21.045Z,20.33
2022-09-23T17:03:52.018Z,20.80
2022-09-23T17:06:23.070Z,21.52
2022-09-23T17:08:53.852Z,20.50
2022-09-23T17:11:25.504Z,19.80
2022-09-23T17:13:56.240Z,20.77
2022-09-23T17:16:30.607Z,20.38
2022-09-23T17:19:01.563Z,17.80
2022-09-23T17:21:32.225Z,17.98
2022-09-23T17:24:03.426Z,16.93
2022-09-23T17:26:34.361Z,15.73
2022-09-23T17:29:05.268Z,15.95
2022-09-23T17:31:36.389Z,15.48
2022-09-23T17:34:07.586Z,14.90
2022-09-23T17:36:38.255Z,16.15
2022-09-23T17:39:09.762Z,17.23
2022-09-23T17:41:41.700Z,16.48
2022-09-23T17:44:15.412Z,14.95
2022-09-23T17:46:46.294Z,16.75
2022-09-23T17:49:17.632Z,14.57
2022-09-23T17:54:18.776Z,15.95
2022-09-23T17:56:49.524Z,15.03
2022-09-23T17:59:20.395Z,15.95
2022-09-23T18:01:51.035Z,16.20
2022-09-23T18:04:21.919Z,15.37
2022-09-23T18:06:53.699Z,17.70
2022-09-23T18:09:24.457Z,17.13
2022-09-23T18:11:55.323Z,18.67
2022-09-23T18:14:26.594Z,18.10
2022-09-23T18:19:28.509Z,18.42
2022-09-23T18:21:59.902Z,17.98
2022-09-23T18:27:04.726Z,18.85
2022-09-23T18:29:37.342Z,19.50
2022-09-23T18:32:12.112Z,20.98
2022-09-23T18:34:44.740Z,18.35
2022-09-23T18:37:16.243Z,18.97
2022-09-23T18:39:47.287Z,17.23
2022-09-23T18:42:18.125Z,16.67
2022-09-23T18:44:49.832Z,18.50
2022-09-23T18:47:40.367Z,19.60
2022-09-23T18:50:33.257Z,16.40
2022-09-23T18:53:21.932Z,17.73
2022-09-23T18:55:52.744Z,17.60
2022-09-23T18:58:23.466Z,18.37
2022-09-23T19:00:54.279Z,19.20
2022-09-23T19:03:25.026Z,19.33
2022-09-23T19:05:55.770Z,19.20
2022-09-23T19:08:26.787Z,18.57
2022-09-23T19:11:02.616Z,17.67
2022-09-23T19:13:37.250Z,20.30
2022-09-23T19:16:12.567Z,21.35
2022-09-23T19:18:45.113Z,19.63
2022-09-23T19:21:17.645Z,18.10
2022-09-23T19:23:51.063Z,18.80
2022-09-23T19:26:24.707Z,18.00
2022-09-23T19:28:57.675Z,19.85
2022-09-23T19:31:34.150Z,16.77
2022-09-23T19:34:12.561Z,18.90
2022-09-23T19:36:46.017Z,17.77
2022-09-23T19:39:21.009Z,17.52
2022-09-23T19:41:52.696Z,17.85
2022-09-23T19:44:23.374Z,17.98
2022-09-23T19:46:56.725Z,20.17
2022-09-23T19:49:28.690Z,17.55
2022-09-23T19:54:30.420Z,18.10
2022-09-23T19:57:02.006Z,17.25
2022-09-23T19:59:32.645Z,19.48
2022-09-23T20:02:03.348Z,19.30
2022-09-23T20:04:34.112Z,18.65
2022-09-23T20:07:07.151Z,18.97
2022-09-23T20:09:37.852Z,19.60
2022-09-23T20:12:08.499Z,18.33
2022-09-23T20:14:39.018Z,16.00
2022-09-23T20:17:10.363Z,17.27
2022-09-23T20:19:41.212Z,15.35
2022-09-23T20:22:33.331Z,15.88
2022-09-23T20:25:05.350Z,15.07
2022-09-23T20:27:37.223Z,15.90
2022-09-23T20:30:09.660Z,12.68
2022-09-23T20:32:44.020Z,14.07
2022-09-23T20:35:15.617Z,16.25
2022-09-23T20:37:47.399Z,11.77
2022-09-23T20:40:18.219Z,10.85
2022-09-23T20:42:51.538Z,11.98
2022-09-23T20:45:22.297Z,11.27
2022-09-23T20:47:52.997Z,10.80
2022-09-23T20:50:23.650Z,11.17
2022-09-23T20:52:55.904Z,11.40
2022-09-23T20:55:26.755Z,10.63
2022-09-23T20:57:57.887Z,10.73
2022-09-23T21:00:28.944Z,10.63
2022-09-23T21:02:59.651Z,11.00
2022-09-23T21:05:30.361Z,9.57
2022-09-23T21:08:03.095Z,10.23
2022-09-23T21:10:33.983Z,10.23
2022-09-23T21:13:06.896Z,9.37
2022-09-23T21:15:38.472Z,12.93
2022-09-23T21:18:14.562Z,12.77
2022-09-23T21:20:46.851Z,9.50
2022-09-23T21:23:17.679Z,10.38
2022-09-23T21:25:48.464Z,11.00
2022-09-23T21:28:19.311Z,13.25
2022-09-23T21:30:51.983Z,9.97
2022-09-23T21:33:22.873Z,11.25
2022-09-23T21:35:57.583Z,9.90
2022-09-23T21:38:28.375Z,10.68
2022-09-23T21:41:03.656Z,9.33
2022-09-23T21:43:37.249Z,10.27
2022-09-23T21:46:10.937Z,11.55
2022-09-23T21:48:44.653Z,11.70
2022-09-23T21:51:20.132Z,10.35
2022-09-23T21:53:51.693Z,13.45
2022-09-23T21:56:31.039Z,13.18
2022-09-23T21:59:02.629Z,11.77
2022-09-23T22:01:38.928Z,10.63
2022-09-23T22:04:16.142Z,13.80
2022-09-23T22:06:47.674Z,10.25
2022-09-23T22:09:22.079Z,10.60
2022-09-23T22:12:08.347Z,12.30
2022-09-23T22:14:39.609Z,11.38
2022-09-23T22:17:15.456Z,12.75
2022-09-23T22:19:48.602Z,12.60
2022-09-23T22:22:21.126Z,10.60
2022-09-23T22:24:51.886Z,12.05
2022-09-23T22:27:23.432Z,10.07
2022-09-23T22:30:12.625Z,10.05
2022-09-23T22:32:43.374Z,11.75
2022-09-23T22:35:19.274Z,13.95
2022-09-23T22:37:50.691Z,11.98
2022-09-23T22:42:52.452Z,13.02
2022-09-23T22:45:23.262Z,11.20
2022-09-23T22:47:55.897Z,12.00
2022-09-23T22:50:26.642Z,12.15
2022-09-23T22:52:57.283Z,12.17
2022-09-23T22:55:28.028Z,14.90
2022-09-23T22:58:10.407Z,13.00
2022-09-23T23:00:49.298Z,11.75
2022-09-23T23:03:23.192Z,11.67
2022-09-23T23:05:54.446Z,10.05
2022-09-23T23:10:57.640Z,10.23
2022-09-23T23:13:36.800Z,10.55
2022-09-23T23:16:09.946Z,10.02
2022-09-23T23:18:45.921Z,10.00
2022-09-23T23:21:19.586Z,17.73
2022-09-23T23:23:53.217Z,16.13
2022-09-23T23:26:30.095Z,12.55
2022-09-23T23:29:01.749Z,16.33
2022-09-23T23:34:05.840Z,14.48
2022-09-23T23:36:37.297Z,13.52
2022-09-23T23:41:39.055Z,14.70
2022-09-23T23:46:41.267Z,13.75
2022-09-23T23:49:13.305Z,11.98
2022-09-23T23:51:44.180Z,12.93
2022-09-23T23:54:15.601Z,15.82
2022-09-23T23:56:46.825Z,13.65
2022-09-23T23:59:18.008Z,12.68
